sensor_id;sensor_type;location;lat;lon;timestamp;P1;durP1;ratioP1;P2;durP2;ratioP2
77168;SDS011;66281;45.114;20.730;2024-01-25T00:03:14;39.27;;;21.77;;
77168;SDS011;66281;45.114;20.730;2024-01-25T00:13:15;38.03;;;21.63;;
77168;SDS011;66281;45.114;20.730;2024-01-25T00:23:16;33.45;;;19.05;;
77168;SDS011;66281;45.114;20.730;2024-01-25T00:33:18;38.43;;;20.53;;
77168;SDS011;66281;45.114;20.730;2024-01-25T00:43:19;35.93;;;19.33;;
77168;SDS011;66281;45.114;20.730;2024-01-25T00:53:21;31.95;;;17.15;;
77168;SDS011;66281;45.114;20.730;2024-01-25T01:03:22;28.50;;;14.67;;
77168;SDS011;66281;45.114;20.730;2024-01-25T01:13:24;26.43;;;14.30;;
77168;SDS011;66281;45.114;20.730;2024-01-25T01:23:25;27.48;;;14.63;;
77168;SDS011;66281;45.114;20.730;2024-01-25T01:33:26;27.77;;;16.95;;
77168;SDS011;66281;45.114;20.730;2024-01-25T01:43:28;30.93;;;17.03;;
77168;SDS011;66281;45.114;20.730;2024-01-25T01:53:29;33.97;;;18.27;;
77168;SDS011;66281;45.114;20.730;2024-01-25T02:03:30;30.90;;;15.90;;
77168;SDS011;66281;45.114;20.730;2024-01-25T02:13:32;31.20;;;17.53;;
77168;SDS011;66281;45.114;20.730;2024-01-25T02:23:33;34.27;;;16.27;;
77168;SDS011;66281;45.114;20.730;2024-01-25T02:33:34;38.95;;;17.58;;
77168;SDS011;66281;45.114;20.730;2024-01-25T02:43:36;38.73;;;19.10;;
77168;SDS011;66281;45.114;20.730;2024-01-25T02:53:37;41.30;;;20.90;;
77168;SDS011;66281;45.114;20.730;2024-01-25T03:03:39;37.42;;;18.75;;
77168;SDS011;66281;45.114;20.730;2024-01-25T03:13:40;43.13;;;20.88;;
77168;SDS011;66281;45.114;20.730;2024-01-25T03:23:41;43.87;;;21.43;;
77168;SDS011;66281;45.114;20.730;2024-01-25T03:33:43;42.80;;;21.67;;
77168;SDS011;66281;45.114;20.730;2024-01-25T03:43:44;41.22;;;22.67;;
77168;SDS011;66281;45.114;20.730;2024-01-25T03:53:45;48.70;;;21.93;;
77168;SDS011;66281;45.114;20.730;2024-01-25T04:03:47;42.37;;;21.80;;
77168;SDS011;66281;45.114;20.730;2024-01-25T04:13:48;48.13;;;22.35;;
77168;SDS011;66281;45.114;20.730;2024-01-25T04:23:50;43.83;;;21.47;;
77168;SDS011;66281;45.114;20.730;2024-01-25T04:33:51;49.83;;;23.73;;
77168;SDS011;66281;45.114;20.730;2024-01-25T04:43:53;53.22;;;28.13;;
77168;SDS011;66281;45.114;20.730;2024-01-25T04:53:54;50.42;;;25.42;;
77168;SDS011;66281;45.114;20.730;2024-01-25T05:03:55;43.23;;;23.23;;
77168;SDS011;66281;45.114;20.730;2024-01-25T05:13:57;52.90;;;24.67;;
77168;SDS011;66281;45.114;20.730;2024-01-25T05:23:58;43.20;;;21.75;;
77168;SDS011;66281;45.114;20.730;2024-01-25T05:34:00;45.67;;;21.40;;
77168;SDS011;66281;45.114;20.730;2024-01-25T05:44:02;35.40;;;19.30;;
77168;SDS011;66281;45.114;20.730;2024-01-25T05:54:03;35.92;;;16.75;;
77168;SDS011;66281;45.114;20.730;2024-01-25T06:04:05;32.13;;;17.40;;
77168;SDS011;66281;45.114;20.730;2024-01-25T06:14:06;33.37;;;18.13;;
77168;SDS011;66281;45.114;20.730;2024-01-25T06:24:07;35.03;;;18.13;;
77168;SDS011;66281;45.114;20.730;2024-01-25T06:34:09;36.35;;;18.85;;
77168;SDS011;66281;45.114;20.730;2024-01-25T06:44:10;36.10;;;16.37;;
77168;SDS011;66281;45.114;20.730;2024-01-25T06:54:12;40.77;;;21.07;;
77168;SDS011;66281;45.114;20.730;2024-01-25T07:04:13;54.75;;;23.08;;
77168;SDS011;66281;45.114;20.730;2024-01-25T07:14:15;52.40;;;24.07;;
77168;SDS011;66281;45.114;20.730;2024-01-25T07:24:16;48.87;;;22.40;;
77168;SDS011;66281;45.114;20.730;2024-01-25T07:34:18;44.00;;;21.77;;
77168;SDS011;66281;45.114;20.730;2024-01-25T07:44:19;33.00;;;17.07;;
77168;SDS011;66281;45.114;20.730;2024-01-25T07:54:20;35.60;;;17.33;;
77168;SDS011;66281;45.114;20.730;2024-01-25T08:04:22;32.90;;;16.88;;
77168;SDS011;66281;45.114;20.730;2024-01-25T08:14:23;37.22;;;17.92;;
77168;SDS011;66281;45.114;20.730;2024-01-25T08:24:25;40.57;;;21.80;;
77168;SDS011;66281;45.114;20.730;2024-01-25T08:34:26;64.73;;;38.80;;
77168;SDS011;66281;45.114;20.730;2024-01-25T08:44:27;106.72;;;49.70;;
77168;SDS011;66281;45.114;20.730;2024-01-25T08:54:29;55.53;;;26.10;;
77168;SDS011;66281;45.114;20.730;2024-01-25T09:04:30;46.80;;;23.13;;
77168;SDS011;66281;45.114;20.730;2024-01-25T09:14:31;60.15;;;26.90;;
77168;SDS011;66281;45.114;20.730;2024-01-25T09:24:33;45.57;;;21.03;;
77168;SDS011;66281;45.114;20.730;2024-01-25T09:34:37;28.40;;;13.27;;
77168;SDS011;66281;45.114;20.730;2024-01-25T09:44:40;43.08;;;15.98;;
77168;SDS011;66281;45.114;20.730;2024-01-25T09:54:41;24.55;;;11.73;;
77168;SDS011;66281;45.114;20.730;2024-01-25T10:04:46;19.47;;;9.60;;
77168;SDS011;66281;45.114;20.730;2024-01-25T10:14:50;46.67;;;21.10;;
77168;SDS011;66281;45.114;20.730;2024-01-25T10:24:52;26.15;;;11.63;;
77168;SDS011;66281;45.114;20.730;2024-01-25T10:34:56;22.30;;;11.30;;
77168;SDS011;66281;45.114;20.730;2024-01-25T10:44:59;20.73;;;10.17;;
77168;SDS011;66281;45.114;20.730;2024-01-25T10:55:00;21.90;;;9.93;;
77168;SDS011;66281;45.114;20.730;2024-01-25T11:05:05;14.97;;;6.50;;
77168;SDS011;66281;45.114;20.730;2024-01-25T11:15:19;17.33;;;7.63;;
77168;SDS011;66281;45.114;20.730;2024-01-25T11:25:21;14.00;;;6.20;;
77168;SDS011;66281;45.114;20.730;2024-01-25T11:35:23;12.90;;;5.50;;
77168;SDS011;66281;45.114;20.730;2024-01-25T11:45:24;25.97;;;9.73;;
77168;SDS011;66281;45.114;20.730;2024-01-25T11:55:26;23.77;;;9.13;;
77168;SDS011;66281;45.114;20.730;2024-01-25T12:05:27;19.02;;;9.60;;
77168;SDS011;66281;45.114;20.730;2024-01-25T12:15:31;30.03;;;8.83;;
77168;SDS011;66281;45.114;20.730;2024-01-25T12:25:38;25.70;;;9.37;;
77168;SDS011;66281;45.114;20.730;2024-01-25T12:35:41;13.40;;;6.75;;
77168;SDS011;66281;45.114;20.730;2024-01-25T12:45:42;11.83;;;5.10;;
77168;SDS011;66281;45.114;20.730;2024-01-25T12:55:44;8.33;;;3.53;;
77168;SDS011;66281;45.114;20.730;2024-01-25T13:05:45;7.47;;;3.50;;
77168;SDS011;66281;45.114;20.730;2024-01-25T13:15:47;11.37;;;4.73;;
77168;SDS011;66281;45.114;20.730;2024-01-25T13:25:50;15.77;;;6.50;;
77168;SDS011;66281;45.114;20.730;2024-01-25T13:35:51;16.47;;;6.00;;
77168;SDS011;66281;45.114;20.730;2024-01-25T13:45:53;14.73;;;6.03;;
77168;SDS011;66281;45.114;20.730;2024-01-25T13:55:56;10.10;;;3.77;;
77168;SDS011;66281;45.114;20.730;2024-01-25T14:05:57;10.60;;;4.17;;
77168;SDS011;66281;45.114;20.730;2024-01-25T14:15:59;10.93;;;3.15;;
77168;SDS011;66281;45.114;20.730;2024-01-25T14:26:01;7.63;;;2.90;;
77168;SDS011;66281;45.114;20.730;2024-01-25T14:36:04;11.13;;;3.93;;
77168;SDS011;66281;45.114;20.730;2024-01-25T14:46:06;10.70;;;3.22;;
77168;SDS011;66281;45.114;20.730;2024-01-25T14:56:08;17.48;;;7.15;;
77168;SDS011;66281;45.114;20.730;2024-01-25T15:06:10;14.57;;;6.53;;
77168;SDS011;66281;45.114;20.730;2024-01-25T15:16:12;16.27;;;5.80;;
77168;SDS011;66281;45.114;20.730;2024-01-25T15:26:13;13.80;;;6.45;;
77168;SDS011;66281;45.114;20.730;2024-01-25T15:36:14;18.90;;;6.90;;
77168;SDS011;66281;45.114;20.730;2024-01-25T15:46:18;142.13;;;61.60;;
77168;SDS011;66281;45.114;20.730;2024-01-25T15:56:19;33.63;;;16.67;;
77168;SDS011;66281;45.114;20.730;2024-01-25T16:06:21;17.10;;;7.03;;
77168;SDS011;66281;45.114;20.730;2024-01-25T16:16:22;36.13;;;13.50;;
77168;SDS011;66281;45.114;20.730;2024-01-25T16:26:24;31.30;;;11.43;;
77168;SDS011;66281;45.114;20.730;2024-01-25T16:36:25;43.80;;;17.05;;
77168;SDS011;66281;45.114;20.730;2024-01-25T16:46:27;33.70;;;12.53;;
77168;SDS011;66281;45.114;20.730;2024-01-25T16:56:31;28.07;;;10.93;;
77168;SDS011;66281;45.114;20.730;2024-01-25T17:06:33;22.40;;;8.32;;
77168;SDS011;66281;45.114;20.730;2024-01-25T17:16:36;27.57;;;11.73;;
77168;SDS011;66281;45.114;20.730;2024-01-25T17:26:38;32.17;;;11.17;;
77168;SDS011;66281;45.114;20.730;2024-01-25T17:36:39;27.40;;;10.52;;
77168;SDS011;66281;45.114;20.730;2024-01-25T17:46:41;17.33;;;7.60;;
77168;SDS011;66281;45.114;20.730;2024-01-25T17:56:43;17.17;;;7.97;;
77168;SDS011;66281;45.114;20.730;2024-01-25T18:06:44;15.07;;;6.95;;
77168;SDS011;66281;45.114;20.730;2024-01-25T18:16:46;16.88;;;5.30;;
77168;SDS011;66281;45.114;20.730;2024-01-25T18:26:47;15.93;;;5.73;;
77168;SDS011;66281;45.114;20.730;2024-01-25T18:36:49;24.47;;;8.70;;
77168;SDS011;66281;45.114;20.730;2024-01-25T18:46:50;15.73;;;5.45;;
77168;SDS011;66281;45.114;20.730;2024-01-25T18:56:52;8.77;;;4.17;;
77168;SDS011;66281;45.114;20.730;2024-01-25T19:06:54;13.17;;;5.43;;
77168;SDS011;66281;45.114;20.730;2024-01-25T19:16:56;12.65;;;5.82;;
77168;SDS011;66281;45.114;20.730;2024-01-25T19:26:59;10.73;;;4.70;;
77168;SDS011;66281;45.114;20.730;2024-01-25T19:37:01;9.70;;;4.10;;
77168;SDS011;66281;45.114;20.730;2024-01-25T19:47:04;8.10;;;4.50;;
77168;SDS011;66281;45.114;20.730;2024-01-25T19:57:07;8.93;;;3.70;;
77168;SDS011;66281;45.114;20.730;2024-01-25T20:07:11;13.27;;;4.33;;
77168;SDS011;66281;45.114;20.730;2024-01-25T20:17:14;12.23;;;5.13;;
77168;SDS011;66281;45.114;20.730;2024-01-25T20:27:16;18.83;;;6.40;;
77168;SDS011;66281;45.114;20.730;2024-01-25T20:37:17;17.23;;;5.10;;
77168;SDS011;66281;45.114;20.730;2024-01-25T20:47:20;16.57;;;4.80;;
77168;SDS011;66281;45.114;20.730;2024-01-25T20:57:22;19.15;;;7.78;;
77168;SDS011;66281;45.114;20.730;2024-01-25T21:07:23;29.17;;;10.87;;
77168;SDS011;66281;45.114;20.730;2024-01-25T21:17:27;38.47;;;14.90;;
77168;SDS011;66281;45.114;20.730;2024-01-25T21:27:29;29.35;;;11.27;;
77168;SDS011;66281;45.114;20.730;2024-01-25T21:37:32;26.75;;;9.30;;
77168;SDS011;66281;45.114;20.730;2024-01-25T21:47:34;18.17;;;8.53;;
77168;SDS011;66281;45.114;20.730;2024-01-25T21:57:37;17.83;;;8.07;;
77168;SDS011;66281;45.114;20.730;2024-01-25T22:07:38;31.67;;;11.32;;
77168;SDS011;66281;45.114;20.730;2024-01-25T22:17:39;37.30;;;13.50;;
77168;SDS011;66281;45.114;20.730;2024-01-25T22:27:41;27.83;;;9.33;;
77168;SDS011;66281;45.114;20.730;2024-01-25T22:37:42;28.30;;;11.63;;
77168;SDS011;66281;45.114;20.730;2024-01-25T22:47:44;15.40;;;8.00;;
77168;SDS011;66281;45.114;20.730;2024-01-25T22:57:45;13.80;;;5.73;;
77168;SDS011;66281;45.114;20.730;2024-01-25T23:07:47;16.80;;;5.47;;
77168;SDS011;66281;45.114;20.730;2024-01-25T23:17:49;16.30;;;4.85;;
77168;SDS011;66281;45.114;20.730;2024-01-25T23:27:51;22.23;;;8.30;;
77168;SDS011;66281;45.114;20.730;2024-01-25T23:37:52;16.73;;;5.70;;
77168;SDS011;66281;45.114;20.730;2024-01-25T23:47:53;12.18;;;4.43;;
77168;SDS011;66281;45.114;20.730;2024-01-25T23:57:54;18.67;;;6.70;;
